sensor_id;sensor_type;location;lat;lon;timestamp;temperature;humidity
18777;DHT22;9517;51.174;4.160;2022-12-20T18:25:32;10.50;99.90
18777;DHT22;9517;51.174;4.160;2022-12-20T18:27:59;10.40;99.90
18777;DHT22;9517;51.174;4.160;2022-12-20T18:30:26;10.30;99.90
18777;DHT22;9517;51.174;4.160;2022-12-20T18:32:57;10.30;99.90
18777;DHT22;9517;51.174;4.160;2022-12-20T18:55:53;10.60;99.90
18777;DHT22;9517;51.174;4.160;2022-12-20T18:58:34;10.50;99.90
18777;DHT22;9517;51.174;4.160;2022-12-20T19:01:14;10.50;99.90
18777;DHT22;9517;51.174;4.160;2022-12-20T19:03:54;10.50;99.90
18777;DHT22;9517;51.174;4.160;2022-12-20T19:06:31;10.60;99.90
18777;DHT22;9517;51.174;4.160;2022-12-20T19:08:59;10.60;99.90
18777;DHT22;9517;51.174;4.160;2022-12-20T19:11:30;10.50;99.90
18777;DHT22;9517;51.174;4.160;2022-12-20T19:14:36;10.50;99.90
18777;DHT22;9517;51.174;4.160;2022-12-20T19:17:39;10.50;99.90
18777;DHT22;9517;51.174;4.160;2022-12-20T19:20:12;10.50;99.90
18777;DHT22;9517;51.174;4.160;2022-12-20T19:22:42;10.60;99.90
18777;DHT22;9517;51.174;4.160;2022-12-20T19:25:25;10.60;99.90
18777;DHT22;9517;51.174;4.160;2022-12-20T19:35:16;10.70;99.90
18777;DHT22;9517;51.174;4.160;2022-12-20T19:37:57;10.70;99.90
18777;DHT22;9517;51.174;4.160;2022-12-20T19:40:27;10.60;99.90
18777;DHT22;9517;51.174;4.160;2022-12-20T20:23:18;10.30;99.90
18777;DHT22;9517;51.174;4.160;2022-12-20T20:25:49;10.30;99.90
18777;DHT22;9517;51.174;4.160;2022-12-20T20:28:46;10.40;99.90
18777;DHT22;9517;51.174;4.160;2022-12-20T20:31:24;10.40;99.90
18777;DHT22;9517;51.174;4.160;2022-12-20T20:40:08;10.30;99.90
18777;DHT22;9517;51.174;4.160;2022-12-20T20:42:35;10.20;99.90
18777;DHT22;9517;51.174;4.160;2022-12-20T20:45:06;10.20;99.90
18777;DHT22;9517;51.174;4.160;2022-12-20T20:47:34;10.30;99.90
18777;DHT22;9517;51.174;4.160;2022-12-20T20:50:01;10.20;99.90
18777;DHT22;9517;51.174;4.160;2022-12-20T20:52:28;10.30;99.90
18777;DHT22;9517;51.174;4.160;2022-12-20T20:55:02;10.30;99.90
18777;DHT22;9517;51.174;4.160;2022-12-20T20:57:40;10.30;99.90
18777;DHT22;9517;51.174;4.160;2022-12-20T21:00:09;10.30;99.90
18777;DHT22;9517;51.174;4.160;2022-12-20T21:02:36;10.30;99.90
18777;DHT22;9517;51.174;4.160;2022-12-20T21:05:04;10.30;99.90
18777;DHT22;9517;51.174;4.160;2022-12-20T21:07:42;10.30;99.90
18777;DHT22;9517;51.174;4.160;2022-12-20T21:10:15;10.30;99.90
18777;DHT22;9517;51.174;4.160;2022-12-20T21:12:46;10.30;99.90
18777;DHT22;9517;51.174;4.160;2022-12-20T21:22:10;10.20;99.90
18777;DHT22;9517;51.174;4.160;2022-12-20T21:26:51;10.10;99.90
18777;DHT22;9517;51.174;4.160;2022-12-20T21:28:19;10.10;99.90
18777;DHT22;9517;51.174;4.160;2022-12-20T21:30:57;10.10;99.90
18777;DHT22;9517;51.174;4.160;2022-12-20T21:57:27;10.10;99.90
18777;DHT22;9517;51.174;4.160;2022-12-20T22:00:11;10.10;99.90
18777;DHT22;9517;51.174;4.160;2022-12-20T22:02:44;10.20;99.90
18777;DHT22;9517;51.174;4.160;2022-12-20T22:05:21;10.10;99.90
18777;DHT22;9517;51.174;4.160;2022-12-20T22:07:51;10.10;99.90
18777;DHT22;9517;51.174;4.160;2022-12-20T22:10:26;10.20;99.90
18777;DHT22;9517;51.174;4.160;2022-12-20T22:16:19;10.00;99.90
18777;DHT22;9517;51.174;4.160;2022-12-20T22:18:50;10.10;99.90
18777;DHT22;9517;51.174;4.160;2022-12-20T22:21:19;10.00;99.90
18777;DHT22;9517;51.174;4.160;2022-12-20T22:23:47;10.00;99.90
18777;DHT22;9517;51.174;4.160;2022-12-20T22:26:18;10.10;99.90
18777;DHT22;9517;51.174;4.160;2022-12-20T22:28:47;10.00;99.90
18777;DHT22;9517;51.174;4.160;2022-12-20T22:31:16;10.00;99.90
18777;DHT22;9517;51.174;4.160;2022-12-20T22:33:45;10.00;99.90
18777;DHT22;9517;51.174;4.160;2022-12-20T22:36:14;10.00;99.90
18777;DHT22;9517;51.174;4.160;2022-12-20T22:38:42;10.00;99.90
18777;DHT22;9517;51.174;4.160;2022-12-20T22:41:11;10.00;99.90
18777;DHT22;9517;51.174;4.160;2022-12-20T22:43:40;9.90;99.90
18777;DHT22;9517;51.174;4.160;2022-12-20T22:46:08;10.00;99.90
18777;DHT22;9517;51.174;4.160;2022-12-20T22:48:38;9.80;99.90
18777;DHT22;9517;51.174;4.160;2022-12-20T22:51:08;9.90;99.90
18777;DHT22;9517;51.174;4.160;2022-12-20T22:53:36;10.00;99.90
18777;DHT22;9517;51.174;4.160;2022-12-20T22:56:05;9.90;99.90
18777;DHT22;9517;51.174;4.160;2022-12-20T22:58:32;9.90;99.90
18777;DHT22;9517;51.174;4.160;2022-12-20T23:01:04;9.90;99.90
18777;DHT22;9517;51.174;4.160;2022-12-20T23:03:37;9.90;99.90
18777;DHT22;9517;51.174;4.160;2022-12-20T23:06:06;9.90;99.90
18777;DHT22;9517;51.174;4.160;2022-12-20T23:08:35;9.70;99.90
18777;DHT22;9517;51.174;4.160;2022-12-20T23:11:05;9.70;99.90
18777;DHT22;9517;51.174;4.160;2022-12-20T23:13:52;9.80;99.90
18777;DHT22;9517;51.174;4.160;2022-12-20T23:16:37;9.90;99.90
18777;DHT22;9517;51.174;4.160;2022-12-20T23:19:06;9.90;99.90
18777;DHT22;9517;51.174;4.160;2022-12-20T23:21:33;9.80;99.90
18777;DHT22;9517;51.174;4.160;2022-12-20T23:24:17;9.80;99.90
18777;DHT22;9517;51.174;4.160;2022-12-20T23:26:45;9.90;99.90
18777;DHT22;9517;51.174;4.160;2022-12-20T23:29:12;9.80;99.90
18777;DHT22;9517;51.174;4.160;2022-12-20T23:31:39;10.00;99.90
18777;DHT22;9517;51.174;4.160;2022-12-20T23:34:08;9.90;99.90
18777;DHT22;9517;51.174;4.160;2022-12-20T23:36:36;9.90;99.90
18777;DHT22;9517;51.174;4.160;2022-12-20T23:39:04;9.80;99.90
18777;DHT22;9517;51.174;4.160;2022-12-20T23:41:31;9.90;99.90
18777;DHT22;9517;51.174;4.160;2022-12-20T23:43:58;9.90;99.90
18777;DHT22;9517;51.174;4.160;2022-12-20T23:46:26;9.90;99.90
18777;DHT22;9517;51.174;4.160;2022-12-20T23:48:55;10.00;99.90
18777;DHT22;9517;51.174;4.160;2022-12-20T23:51:24;9.90;99.90
18777;DHT22;9517;51.174;4.160;2022-12-20T23:53:51;10.00;99.90
18777;DHT22;9517;51.174;4.160;2022-12-20T23:56:20;10.00;99.90
18777;DHT22;9517;51.174;4.160;2022-12-20T23:58:53;10.00;99.90
